Time;durP1;ratioP1;P1;durP2;ratioP2;P2;SDS_P1;SDS_P2;PMS_P1;PMS_P2;Temp;Humidity;BMP_temperature;BMP_pressure;BME280_temperature;BME280_humidity;BME280_pressure;Samples;Min_cycle;Max_cycle;Signal;HPM_P1;HPM_P2
2023/10/27 00:05:22;;;;;;;;;;;10.20;99.90;;;;;;6744751;88;20053;-80
2023/10/27 00:15:22;;;;;;;;;;;10.20;99.90;;;;;;6754707;88;20077;-79
2023/10/27 00:25:23;;;;;;;;;;;10.20;99.90;;;;;;6770569;88;20070;-79
2023/10/27 00:35:24;;;;;;;;;;;10.20;99.90;;;;;;6772897;88;20131;-80
2023/10/27 00:45:25;;;;;;;;;;;10.30;99.90;;;;;;6747221;88;20508;-79
2023/10/27 00:55:26;;;;;;;;;;;10.30;99.90;;;;;;6752985;88;20049;-79
2023/10/27 01:05:26;;;;;;;;;;;10.30;99.90;;;;;;6751237;88;20455;-78
2023/10/27 01:15:29;;;;;;;;;;;10.40;99.90;;;;;;6752086;88;20148;-79
2023/10/27 01:25:30;;;;;;;;;;;10.40;99.90;;;;;;6753795;88;20045;-79
2023/10/27 01:35:30;;;;;;;;;;;10.30;99.90;;;;;;6752969;88;20497;-79
2023/10/27 01:45:31;;;;;;;;;;;10.30;99.90;;;;;;6743826;88;20053;-79
2023/10/27 01:55:32;;;;;;;;;;;10.30;99.90;;;;;;6748773;88;20073;-79
2023/10/27 02:05:32;;;;;;;;;;;10.20;99.90;;;;;;6761621;88;20066;-79
2023/10/27 02:15:33;;;;;;;;;;;10.30;99.90;;;;;;6768769;88;20137;-80
2023/10/27 02:25:33;;;;;;;;;;;10.30;99.90;;;;;;6751719;88;20097;-79
2023/10/27 02:35:34;;;;;;;;;;;10.30;99.90;;;;;;6743466;88;20057;-79
2023/10/27 02:45:34;;;;;;;;;;;10.30;99.90;;;;;;6743145;88;20128;-78
2023/10/27 02:55:34;;;;;;;;;;;10.30;99.90;;;;;;6743150;88;20050;-79
2023/10/27 03:05:35;;;;;;;;;;;10.20;99.90;;;;;;6752373;88;20342;-79
2023/10/27 03:25:39;;;;;;;;;;;10.30;99.90;;;;;;6753710;88;20082;-79
2023/10/27 03:35:42;;;;;;;;;;;10.30;99.90;;;;;;6757727;87;20107;-79
2023/10/27 03:45:42;;;;;;;;;;;10.30;99.90;;;;;;6760956;87;20099;-80
2023/10/27 03:55:43;;;;;;;;;;;10.30;99.90;;;;;;6756739;88;20071;-79
2023/10/27 04:05:43;;;;;;;;;;;10.20;99.90;;;;;;6760775;87;20083;-79
2023/10/27 04:15:44;;;;;;;;;;;10.20;99.90;;;;;;6760329;88;20045;-79
2023/10/27 04:25:45;;;;;;;;;;;10.10;99.90;;;;;;6769771;88;20069;-79
2023/10/27 04:35:45;;;;;;;;;;;10.20;99.90;;;;;;6771051;88;20069;-79
2023/10/27 04:45:46;;;;;;;;;;;10.30;99.90;;;;;;6764729;88;20060;-79
2023/10/27 04:55:46;;;;;;;;;;;10.30;99.90;;;;;;6762821;88;20049;-80
2023/10/27 05:05:47;;;;;;;;;;;10.20;99.90;;;;;;6780027;88;20042;-81
2023/10/27 05:15:54;;;;;;;;;;;10.20;99.90;;;;;;6773845;88;20147;-81
2023/10/27 05:25:54;;;;;;;;;;;10.20;99.90;;;;;;6775533;88;20030;-80
2023/10/27 05:35:55;;;;;;;;;;;10.20;99.90;;;;;;6785564;87;20601;-82
2023/10/27 05:45:55;;;;;;;;;;;10.20;99.90;;;;;;6774464;87;20073;-82
2023/10/27 05:55:56;;;;;;;;;;;10.30;99.90;;;;;;6781209;87;20053;-80
2023/10/27 06:05:56;;;;;;;;;;;10.30;99.90;;;;;;6771627;87;20034;-82
2023/10/27 06:15:56;;;;;;;;;;;10.20;99.90;;;;;;6762364;87;20102;-82
2023/10/27 06:25:57;;;;;;;;;;;10.20;99.90;;;;;;6760797;88;20598;-82
2023/10/27 06:35:59;;;;;;;;;;;10.30;99.90;;;;;;6782643;87;20015;-83
2023/10/27 06:45:59;;;;;;;;;;;10.20;99.90;;;;;;6765851;87;20058;-81
2023/10/27 06:56:00;;;;;;;;;;;10.20;99.90;;;;;;6761794;88;20074;-82
2023/10/27 07:06:01;;;;;;;;;;;10.20;99.90;;;;;;6763801;88;20064;-82
2023/10/27 07:16:02;;;;;;;;;;;10.30;99.90;;;;;;6763079;88;20475;-82
2023/10/27 07:26:15;;;;;;;;;;;10.20;99.90;;;;;;6762936;88;20176;-82
2023/10/27 07:36:16;;;;;;;;;;;10.30;99.90;;;;;;6764323;88;20026;-83
2023/10/27 07:46:16;;;;;;;;;;;10.30;99.90;;;;;;6763286;87;20046;-82
2023/10/27 07:56:18;;;;;;;;;;;10.30;99.90;;;;;;6765085;87;20045;-83
2023/10/27 08:06:18;;;;;;;;;;;10.40;99.90;;;;;;6763934;87;20063;-82
2023/10/27 08:16:19;;;;;;;;;;;10.50;99.90;;;;;;6765295;87;20078;-82
2023/10/27 08:26:19;;;;;;;;;;;10.50;99.90;;;;;;6763378;88;20108;-81
2023/10/27 08:36:20;;;;;;;;;;;10.60;99.90;;;;;;6766850;87;20147;-81
2023/10/27 08:46:21;;;;;;;;;;;10.60;99.90;;;;;;6780292;87;20158;-81
2023/10/27 08:56:21;;;;;;;;;;;10.70;99.90;;;;;;6780746;87;20069;-81
2023/10/27 09:06:22;;;;;;;;;;;10.80;99.90;;;;;;6778623;88;20133;-81
2023/10/27 09:26:28;;;;;;;;;;;11.10;99.90;;;;;;6743662;88;20067;-81
2023/10/27 09:36:28;;;;;;;;;;;11.10;99.90;;;;;;6732164;88;20612;-80
2023/10/27 09:46:32;;;;;;;;;;;11.10;99.90;;;;;;6738684;88;20079;-80
2023/10/27 09:56:33;;;;;;;;;;;11.30;99.90;;;;;;6723893;88;20056;-79
2023/10/27 10:06:35;;;;;;;;;;;11.80;99.90;;;;;;6718914;88;20612;-78
2023/10/27 10:16:45;;;;;;;;;;;12.20;99.90;;;;;;6718236;88;20078;-78
2023/10/27 10:27:05;;;;;;;;;;;13.20;99.90;;;;;;6719768;88;20079;-78
2023/10/27 10:37:24;;;;;;;;;;;13.70;99.90;;;;;;6716310;88;20091;-78
2023/10/27 10:47:26;;;;;;;;;;;14.00;99.90;;;;;;6713490;88;20138;-78
2023/10/27 10:57:27;;;;;;;;;;;13.50;99.90;;;;;;6719193;88;20239;-79
2023/10/27 11:07:28;;;;;;;;;;;13.40;99.90;;;;;;6723011;88;20077;-79
2023/10/27 11:17:48;;;;;;;;;;;14.90;99.90;;;;;;6727315;88;20066;-79
2023/10/27 11:27:48;;;;;;;;;;;15.50;99.90;;;;;;6721454;88;20059;-80
2023/10/27 11:37:49;;;;;;;;;;;15.30;99.90;;;;;;6719857;88;20071;-79
2023/10/27 11:47:49;;;;;;;;;;;14.50;99.90;;;;;;6714368;88;20208;-80
2023/10/27 11:57:50;;;;;;;;;;;14.50;99.90;;;;;;6715163;88;20071;-80
2023/10/27 12:07:51;;;;;;;;;;;14.60;99.90;;;;;;6721358;88;20100;-80
2023/10/27 12:17:51;;;;;;;;;;;14.80;99.90;;;;;;6719487;88;20563;-79
2023/10/27 12:27:52;;;;;;;;;;;15.00;99.90;;;;;;6717249;88;20063;-79
2023/10/27 12:37:53;;;;;;;;;;;14.60;99.90;;;;;;6723718;88;20841;-79
2023/10/27 12:47:55;;;;;;;;;;;14.30;99.90;;;;;;6726481;88;20064;-78
2023/10/27 12:57:59;;;;;;;;;;;14.20;99.90;;;;;;6729131;88;20101;-79
2023/10/27 13:08:01;;;;;;;;;;;14.30;99.90;;;;;;6724000;88;20066;-79
2023/10/27 13:18:02;;;;;;;;;;;14.30;99.90;;;;;;6716149;88;20076;-79
2023/10/27 13:28:03;;;;;;;;;;;14.30;99.90;;;;;;6723358;88;20087;-80
2023/10/27 13:38:06;;;;;;;;;;;14.10;99.90;;;;;;6744068;88;20167;-81
2023/10/27 13:48:08;;;;;;;;;;;14.10;99.90;;;;;;6729326;88;20090;-79
2023/10/27 13:58:09;;;;;;;;;;;14.30;99.90;;;;;;6720155;88;20104;-81
2023/10/27 14:08:09;;;;;;;;;;;14.60;99.90;;;;;;6718301;88;20075;-80
2023/10/27 14:18:10;;;;;;;;;;;14.80;99.90;;;;;;6728179;88;20072;-80
2023/10/27 14:28:10;;;;;;;;;;;14.80;99.90;;;;;;6718744;88;20480;-80
2023/10/27 14:38:12;;;;;;;;;;;15.10;99.90;;;;;;6724585;88;20063;-79
2023/10/27 14:48:15;;;;;;;;;;;15.00;99.90;;;;;;6722158;88;20107;-79
2023/10/27 14:58:16;;;;;;;;;;;14.80;99.90;;;;;;6717903;88;20217;-79
2023/10/27 15:08:19;;;;;;;;;;;14.60;99.90;;;;;;6721849;88;20137;-79
2023/10/27 15:18:20;;;;;;;;;;;14.50;99.90;;;;;;6724279;88;20113;-80
2023/10/27 15:28:20;;;;;;;;;;;14.40;99.90;;;;;;6716922;88;20066;-79
2023/10/27 15:38:22;;;;;;;;;;;14.50;99.90;;;;;;6725043;88;20052;-78
2023/10/27 15:48:22;;;;;;;;;;;14.50;99.90;;;;;;6723381;88;20063;-78
2023/10/27 15:58:23;;;;;;;;;;;14.50;99.90;;;;;;6724783;88;20131;-79
2023/10/27 16:18:28;;;;;;;;;;;13.90;99.90;;;;;;6731258;88;20630;-82
2023/10/27 16:28:28;;;;;;;;;;;13.60;99.90;;;;;;6717758;88;20118;-81
2023/10/27 16:38:29;;;;;;;;;;;13.40;99.90;;;;;;6712766;88;20517;-81
2023/10/27 16:48:29;;;;;;;;;;;13.10;99.90;;;;;;6711868;88;20046;-81
2023/10/27 16:58:30;;;;;;;;;;;12.80;99.90;;;;;;6721556;88;20118;-80
2023/10/27 17:08:31;;;;;;;;;;;12.60;99.90;;;;;;6726752;88;20593;-82
2023/10/27 17:18:36;;;;;;;;;;;12.40;99.90;;;;;;6720007;88;20553;-79
2023/10/27 17:28:38;;;;;;;;;;;12.20;99.90;;;;;;6732309;88;20189;-79
2023/10/27 17:38:39;;;;;;;;;;;12.30;99.90;;;;;;6726543;88;20076;-78
2023/10/27 17:48:40;;;;;;;;;;;11.90;99.90;;;;;;6726999;88;20614;-80
2023/10/27 17:58:41;;;;;;;;;;;11.10;99.90;;;;;;6727476;88;20209;-79
2023/10/27 18:08:44;;;;;;;;;;;10.80;99.90;;;;;;6727690;88;20053;-78
2023/10/27 18:18:44;;;;;;;;;;;10.70;99.90;;;;;;6727585;88;20080;-82
2023/10/27 18:28:48;;;;;;;;;;;10.60;99.90;;;;;;6736628;88;20572;-80
2023/10/27 18:38:49;;;;;;;;;;;10.50;99.90;;;;;;6727643;88;20068;-81
2023/10/27 18:48:50;;;;;;;;;;;10.50;99.90;;;;;;6745067;88;20054;-82
2023/10/27 18:58:50;;;;;;;;;;;10.60;99.90;;;;;;6741875;88;20078;-80
2023/10/27 19:08:51;;;;;;;;;;;10.80;99.90;;;;;;6746807;88;20210;-83
2023/10/27 19:18:51;;;;;;;;;;;10.90;99.90;;;;;;6776511;77;20047;-83
2023/10/27 19:28:52;;;;;;;;;;;10.90;99.90;;;;;;6749312;88;20459;-83
2023/10/27 19:38:53;;;;;;;;;;;11.20;99.90;;;;;;6745739;88;20047;-81
2023/10/27 19:48:54;;;;;;;;;;;11.20;99.90;;;;;;6745937;88;20155;-82
2023/10/27 19:58:55;;;;;;;;;;;11.00;99.90;;;;;;6730832;88;20061;-82
2023/10/27 20:08:55;;;;;;;;;;;10.80;99.90;;;;;;6730442;88;20784;-84
2023/10/27 20:19:02;;;;;;;;;;;10.80;99.90;;;;;;6732387;88;20103;-82
2023/10/27 20:29:03;;;;;;;;;;;10.80;99.90;;;;;;6746186;88;20030;-82
2023/10/27 20:39:03;;;;;;;;;;;10.70;99.90;;;;;;6744665;88;20109;-82
2023/10/27 20:49:04;;;;;;;;;;;10.30;99.90;;;;;;6741756;88;20197;-82
2023/10/27 20:59:04;;;;;;;;;;;10.00;99.90;;;;;;6739105;88;20078;-83
2023/10/27 21:09:06;;;;;;;;;;;9.80;99.90;;;;;;6745731;88;20082;-81
2023/10/27 21:19:07;;;;;;;;;;;9.70;99.90;;;;;;6747758;88;20509;-82
2023/10/27 21:29:11;;;;;;;;;;;9.50;99.90;;;;;;6745860;88;20061;-82
2023/10/27 21:39:12;;;;;;;;;;;9.50;99.90;;;;;;6748132;88;20081;-81
2023/10/27 21:49:12;;;;;;;;;;;9.50;99.90;;;;;;6754231;88;20060;-80
2023/10/27 21:59:12;;;;;;;;;;;9.60;99.90;;;;;;6753367;88;20075;-79
2023/10/27 22:09:13;;;;;;;;;;;9.60;99.90;;;;;;6757775;77;20080;-79
2023/10/27 22:19:15;;;;;;;;;;;9.90;99.90;;;;;;6734852;88;20699;-79
2023/10/27 22:29:15;;;;;;;;;;;10.10;99.90;;;;;;6722118;88;20130;-79
2023/10/27 22:39:16;;;;;;;;;;;10.20;99.90;;;;;;6721141;88;20580;-78
2023/10/27 22:49:16;;;;;;;;;;;10.30;99.90;;;;;;6722084;88;20067;-78
2023/10/27 22:59:17;;;;;;;;;;;10.50;99.90;;;;;;6715349;88;20071;-78
2023/10/27 23:09:17;;;;;;;;;;;10.50;99.90;;;;;;6719097;88;20115;-78
2023/10/27 23:19:18;;;;;;;;;;;10.80;99.90;;;;;;6718928;88;20067;-78
2023/10/27 23:29:19;;;;;;;;;;;10.80;99.90;;;;;;6722532;88;20181;-78
2023/10/27 23:39:19;;;;;;;;;;;10.80;99.90;;;;;;6717129;88;20568;-78
2023/10/27 23:49:22;;;;;;;;;;;10.80;99.90;;;;;;6716881;88;20068;-78
2023/10/27 23:59:23;;;;;;;;;;;10.80;99.90;;;;;;6714851;88;20050;-78
